createdAt,value
2023-01-17T00:00:01.387Z,7.85
2023-01-17T00:02:43.504Z,5.93
2023-01-17T00:05:29.471Z,4.43
2023-01-17T00:08:15.211Z,4.75
2023-01-17T00:11:02.735Z,4.65
2023-01-17T00:13:41.732Z,3.58
2023-01-17T00:16:19.687Z,3.90
2023-01-17T00:19:24.934Z,4.18
2023-01-17T00:22:27.811Z,3.95
2023-01-17T00:25:23.211Z,3.50
2023-01-17T00:27:59.458Z,4.38
2023-01-17T00:30:28.189Z,4.03
2023-01-17T00:33:14.732Z,5.82
2023-01-17T00:36:01.911Z,4.88
2023-01-17T00:38:48.344Z,5.50
2023-01-17T00:41:20.594Z,3.83
2023-01-17T00:44:06.544Z,3.50
2023-01-17T00:46:54.441Z,4.53
2023-01-17T00:49:40.322Z,4.60
2023-01-17T00:52:25.999Z,3.40
2023-01-17T00:55:14.576Z,2.58
2023-01-17T00:58:11.144Z,2.40
2023-01-17T01:01:03.813Z,6.90
2023-01-17T01:03:49.977Z,4.97
2023-01-17T01:06:35.961Z,5.57
2023-01-17T01:09:24.399Z,9.48
2023-01-17T01:12:13.446Z,6.97
2023-01-17T01:14:59.292Z,5.45
2023-01-17T01:17:45.139Z,6.63
2023-01-17T01:20:31.145Z,4.22
2023-01-17T01:23:17.095Z,4.82
2023-01-17T01:26:03.278Z,5.63
2023-01-17T01:28:56.692Z,3.92
2023-01-17T01:31:42.727Z,3.72
2023-01-17T01:34:20.502Z,4.57
2023-01-17T01:36:49.764Z,3.38
2023-01-17T01:39:18.660Z,5.13
2023-01-17T01:42:00.221Z,4.20
2023-01-17T01:44:49.538Z,5.50
2023-01-17T01:47:27.998Z,5.70
2023-01-17T01:49:59.703Z,5.70
2023-01-17T01:52:49.353Z,6.13
2023-01-17T01:55:30.308Z,5.53
2023-01-17T01:58:16.082Z,4.95
2023-01-17T02:00:52.320Z,5.50
2023-01-17T02:03:41.107Z,4.60
2023-01-17T02:06:31.372Z,4.28
2023-01-17T02:09:07.987Z,4.20
2023-01-17T02:11:55.823Z,3.50
2023-01-17T02:14:28.125Z,3.65
2023-01-17T02:17:14.722Z,3.78
2023-01-17T02:19:49.437Z,3.17
2023-01-17T02:22:29.887Z,2.90
2023-01-17T02:25:21.868Z,2.58
2023-01-17T02:27:55.908Z,2.00
2023-01-17T02:30:42.361Z,3.08
2023-01-17T02:33:18.029Z,2.60
2023-01-17T02:35:57.944Z,3.03
2023-01-17T02:38:38.381Z,2.35
2023-01-17T02:41:25.348Z,2.90
2023-01-17T02:43:55.546Z,2.15
2023-01-17T02:46:24.048Z,1.83
2023-01-17T02:48:52.604Z,1.77
2023-01-17T02:51:27.840Z,2.05
2023-01-17T02:53:59.488Z,2.15
2023-01-17T02:56:45.724Z,1.58
2023-01-17T02:59:15.807Z,1.80
2023-01-17T03:01:44.018Z,3.17
2023-01-17T03:04:35.071Z,2.78
2023-01-17T03:07:06.089Z,2.10
2023-01-17T03:09:43.541Z,1.38
2023-01-17T03:12:12.218Z,1.80
2023-01-17T03:14:40.661Z,2.35
2023-01-17T03:17:11.595Z,2.55
2023-01-17T03:19:40.540Z,2.58
2023-01-17T03:22:09.347Z,2.75
2023-01-17T03:24:39.492Z,2.03
2023-01-17T03:27:10.114Z,2.60
2023-01-17T03:29:41.100Z,2.47
2023-01-17T03:32:09.776Z,2.65
2023-01-17T03:34:38.602Z,2.83
2023-01-17T03:37:07.317Z,3.65
2023-01-17T03:39:35.870Z,3.47
2023-01-17T03:42:04.405Z,3.55
2023-01-17T03:44:34.748Z,3.50
2023-01-17T03:47:03.248Z,2.97
2023-01-17T03:49:37.779Z,3.20
2023-01-17T03:52:06.340Z,2.97
2023-01-17T03:54:38.439Z,2.63
2023-01-17T03:57:06.703Z,2.67
2023-01-17T03:59:35.941Z,4.05
2023-01-17T04:02:07.246Z,4.68
2023-01-17T04:04:35.742Z,5.28
2023-01-17T04:07:06.390Z,5.85
2023-01-17T04:09:35.736Z,5.03
2023-01-17T04:12:04.381Z,5.20
2023-01-17T04:14:33.654Z,5.43
2023-01-17T04:17:04.868Z,4.65
2023-01-17T04:19:36.831Z,4.47
2023-01-17T04:22:05.332Z,4.43
2023-01-17T04:24:35.152Z,4.78
2023-01-17T04:27:06.110Z,3.70
2023-01-17T04:29:38.791Z,3.58
2023-01-17T04:32:09.919Z,4.82
2023-01-17T04:34:40.658Z,4.10
2023-01-17T04:37:10.033Z,3.80
2023-01-17T04:39:38.352Z,3.95
2023-01-17T04:42:06.701Z,4.18
2023-01-17T04:44:38.088Z,3.88
2023-01-17T04:47:06.606Z,3.75
2023-01-17T04:49:37.893Z,4.10
2023-01-17T04:52:06.341Z,4.55
2023-01-17T04:54:36.671Z,3.22
2023-01-17T04:57:04.921Z,4.18
2023-01-17T04:59:34.429Z,3.97
2023-01-17T05:02:05.485Z,3.60
2023-01-17T05:04:36.377Z,3.28
2023-01-17T05:07:04.624Z,3.97
2023-01-17T05:09:33.292Z,4.30
2023-01-17T05:12:01.707Z,4.45
2023-01-17T05:14:34.355Z,4.15
2023-01-17T05:17:04.042Z,3.85
2023-01-17T05:19:38.579Z,3.85
2023-01-17T05:22:15.089Z,3.88
2023-01-17T05:24:44.293Z,4.38
2023-01-17T05:27:15.602Z,4.05
2023-01-17T05:29:46.129Z,3.95
2023-01-17T05:32:14.766Z,4.05
2023-01-17T05:34:46.478Z,4.50
2023-01-17T05:37:15.128Z,4.70
2023-01-17T05:39:43.366Z,5.10
2023-01-17T05:42:11.886Z,5.05
2023-01-17T05:44:42.778Z,5.43
2023-01-17T05:47:10.945Z,5.13
2023-01-17T05:49:40.387Z,5.93
2023-01-17T05:52:10.805Z,6.90
2023-01-17T05:54:39.597Z,7.60
2023-01-17T05:57:08.093Z,7.55
2023-01-17T05:59:37.563Z,8.10
2023-01-17T06:02:08.024Z,8.50
2023-01-17T06:04:41.713Z,8.02
2023-01-17T06:07:15.498Z,8.50
2023-01-17T06:09:43.679Z,9.20
2023-01-17T06:12:14.332Z,8.63
2023-01-17T06:14:44.912Z,9.07
2023-01-17T06:17:16.282Z,8.43
2023-01-17T06:19:45.478Z,10.23
2023-01-17T06:22:13.678Z,9.23
2023-01-17T06:24:42.031Z,9.73
2023-01-17T06:27:10.709Z,9.55
2023-01-17T06:29:39.663Z,10.18
2023-01-17T06:32:08.786Z,10.38
2023-01-17T06:34:38.470Z,10.07
2023-01-17T06:37:07.503Z,9.98
2023-01-17T06:39:36.068Z,10.80
2023-01-17T06:42:07.102Z,10.63
2023-01-17T06:44:36.942Z,11.10
2023-01-17T06:47:06.028Z,9.70
2023-01-17T06:49:37.277Z,11.05
2023-01-17T06:52:05.607Z,9.23
2023-01-17T06:54:36.851Z,10.82
2023-01-17T06:57:05.099Z,10.05
2023-01-17T06:59:35.008Z,10.85
2023-01-17T07:02:10.102Z,11.25
2023-01-17T07:04:41.413Z,11.18
2023-01-17T07:07:09.985Z,10.88
2023-01-17T07:09:38.300Z,11.35
2023-01-17T07:12:06.809Z,12.07
2023-01-17T07:14:37.548Z,12.48
2023-01-17T07:17:06.456Z,13.20
2023-01-17T07:19:37.284Z,14.05
2023-01-17T07:22:05.876Z,13.63
2023-01-17T07:24:36.400Z,14.75
2023-01-17T07:27:08.126Z,13.40
2023-01-17T07:29:37.609Z,14.25
2023-01-17T07:32:08.807Z,14.23
2023-01-17T07:34:40.920Z,13.15
2023-01-17T07:37:15.099Z,15.80
2023-01-17T07:42:14.431Z,13.18
2023-01-17T07:44:45.005Z,14.10
2023-01-17T07:47:15.528Z,13.48
2023-01-17T07:49:43.841Z,13.18
2023-01-17T07:52:13.021Z,12.38
2023-01-17T07:54:41.423Z,13.68
2023-01-17T07:57:14.866Z,13.85
2023-01-17T07:59:44.545Z,12.90
2023-01-17T08:02:18.634Z,12.57
2023-01-17T08:04:47.332Z,12.25
2023-01-17T08:07:16.075Z,13.35
2023-01-17T08:09:49.481Z,13.20
2023-01-17T08:12:22.643Z,13.43
2023-01-17T08:14:51.369Z,12.32
2023-01-17T08:17:20.441Z,13.13
2023-01-17T08:19:53.117Z,12.75
2023-01-17T08:22:21.793Z,12.48
2023-01-17T08:24:53.086Z,12.73
2023-01-17T08:27:23.782Z,12.38
2023-01-17T08:29:54.299Z,11.23
2023-01-17T08:32:23.382Z,12.65
2023-01-17T08:34:51.927Z,14.82
2023-01-17T08:37:22.857Z,14.60
2023-01-17T08:39:53.495Z,15.30
2023-01-17T08:42:21.804Z,13.00
2023-01-17T08:44:52.682Z,12.30
2023-01-17T08:47:21.747Z,12.63
2023-01-17T08:49:50.183Z,12.70
2023-01-17T08:52:21.603Z,10.63
2023-01-17T08:54:53.598Z,12.20
2023-01-17T08:57:22.449Z,12.57
2023-01-17T08:59:53.274Z,12.05
2023-01-17T09:02:24.690Z,13.30
2023-01-17T09:04:53.646Z,11.52
2023-01-17T09:07:22.385Z,12.38
2023-01-17T09:09:52.613Z,11.93
2023-01-17T09:12:22.307Z,13.10
2023-01-17T09:14:50.671Z,12.07
2023-01-17T09:17:21.535Z,11.50
2023-01-17T09:19:52.611Z,11.40
2023-01-17T09:22:21.859Z,12.35
2023-01-17T09:24:53.628Z,10.77
2023-01-17T09:27:21.936Z,10.88
2023-01-17T09:29:52.782Z,11.02
2023-01-17T09:32:24.365Z,11.02
2023-01-17T09:34:52.775Z,11.60
2023-01-17T09:37:21.227Z,10.48
2023-01-17T09:39:49.682Z,10.55
2023-01-17T09:42:35.250Z,10.60
2023-01-17T09:45:03.912Z,10.15
2023-01-17T09:47:37.114Z,11.05
2023-01-17T09:50:20.129Z,9.85
2023-01-17T09:52:49.361Z,10.80
2023-01-17T09:55:18.339Z,11.45
2023-01-17T09:58:07.156Z,9.77
2023-01-17T10:00:43.060Z,11.18
2023-01-17T10:03:20.517Z,11.52
2023-01-17T10:05:48.684Z,10.90
2023-01-17T10:08:28.360Z,10.02
2023-01-17T10:11:16.624Z,9.00
2023-01-17T10:14:07.387Z,9.95
2023-01-17T10:16:42.434Z,8.93
2023-01-17T10:19:24.247Z,9.70
2023-01-17T10:21:52.134Z,8.90
2023-01-17T10:24:31.762Z,10.43
2023-01-17T10:27:01.497Z,9.25
2023-01-17T10:29:32.460Z,9.15
2023-01-17T10:32:03.731Z,7.13
2023-01-17T10:34:37.152Z,9.52
2023-01-17T10:37:24.352Z,10.05
2023-01-17T10:39:59.135Z,9.88
2023-01-17T10:42:54.874Z,8.15
2023-01-17T10:45:29.063Z,9.13
2023-01-17T10:48:05.535Z,8.40
2023-01-17T10:50:38.720Z,8.60
2023-01-17T10:53:18.073Z,8.88
2023-01-17T10:55:46.073Z,9.45
2023-01-17T10:58:14.441Z,8.80
2023-01-17T11:00:44.333Z,8.00
2023-01-17T11:03:23.918Z,8.65
2023-01-17T11:06:19.316Z,7.82
2023-01-17T11:09:13.924Z,8.40
2023-01-17T11:11:51.684Z,8.65
2023-01-17T11:14:26.939Z,9.27
2023-01-17T11:17:02.247Z,8.02
2023-01-17T11:19:36.180Z,8.73
2023-01-17T11:22:06.888Z,8.35
2023-01-17T11:24:35.792Z,10.40
2023-01-17T11:27:07.273Z,9.48
2023-01-17T11:29:37.264Z,8.52
2023-01-17T11:32:25.981Z,8.68
2023-01-17T11:35:13.076Z,9.30
2023-01-17T11:38:08.709Z,8.27
2023-01-17T11:40:43.702Z,5.93
2023-01-17T11:43:15.449Z,6.95
2023-01-17T11:45:43.868Z,7.63
2023-01-17T11:48:15.001Z,8.20
2023-01-17T11:50:45.756Z,8.70
2023-01-17T11:53:26.596Z,9.55
2023-01-17T11:56:00.831Z,8.65
2023-01-17T11:58:29.909Z,7.18
2023-01-17T12:01:02.320Z,8.10
2023-01-17T12:03:31.667Z,8.68
2023-01-17T12:06:07.542Z,8.23
2023-01-17T12:08:45.982Z,8.30
2023-01-17T12:11:25.641Z,8.73
2023-01-17T12:14:01.498Z,8.07
2023-01-17T12:16:56.218Z,8.00
2023-01-17T12:19:43.558Z,8.45
2023-01-17T12:22:11.431Z,9.15
2023-01-17T12:24:58.290Z,8.13
2023-01-17T12:27:26.439Z,7.35
2023-01-17T12:30:19.750Z,6.40
2023-01-17T12:33:10.648Z,6.45
2023-01-17T12:35:44.870Z,7.88
2023-01-17T12:38:31.725Z,8.30
2023-01-17T12:41:05.346Z,8.25
2023-01-17T12:43:41.060Z,7.53
2023-01-17T12:46:29.925Z,7.10
2023-01-17T12:49:05.499Z,7.13
2023-01-17T12:51:36.907Z,6.10
2023-01-17T12:54:24.136Z,5.95
2023-01-17T12:56:55.011Z,6.32
2023-01-17T12:59:26.582Z,5.35
2023-01-17T13:01:59.872Z,5.40
2023-01-17T13:04:41.980Z,6.55
2023-01-17T13:07:21.066Z,5.63
2023-01-17T13:10:03.778Z,5.22
2023-01-17T13:12:33.549Z,5.80
2023-01-17T13:15:02.937Z,5.18
2023-01-17T13:17:44.913Z,4.43
2023-01-17T13:20:39.872Z,4.25
2023-01-17T13:23:17.683Z,4.03
2023-01-17T13:25:48.115Z,3.75
2023-01-17T13:28:36.716Z,4.00
2023-01-17T13:31:04.865Z,3.95
2023-01-17T13:33:40.968Z,4.20
2023-01-17T13:38:55.022Z,4.45
2023-01-17T13:41:38.034Z,3.90
2023-01-17T13:44:24.099Z,4.13
2023-01-17T13:49:33.196Z,3.25
2023-01-17T13:52:05.015Z,3.05
2023-01-17T13:54:34.417Z,3.95
2023-01-17T13:57:20.914Z,2.70
2023-01-17T13:59:48.963Z,2.78
2023-01-17T14:02:36.062Z,2.88
2023-01-17T14:05:21.146Z,3.22
2023-01-17T14:07:59.865Z,3.00
2023-01-17T14:10:27.965Z,3.17
2023-01-17T14:12:56.404Z,3.38
2023-01-17T14:15:27.029Z,3.60
2023-01-17T14:18:00.554Z,3.78
2023-01-17T14:20:38.151Z,3.55
2023-01-17T14:23:25.862Z,3.38
2023-01-17T14:25:54.907Z,3.80
2023-01-17T14:28:29.338Z,3.03
2023-01-17T14:31:00.610Z,3.88
2023-01-17T14:33:36.467Z,3.33
2023-01-17T14:36:08.213Z,3.50
2023-01-17T14:38:42.338Z,3.75
2023-01-17T14:41:18.595Z,4.53
2023-01-17T14:43:50.434Z,3.67
2023-01-17T14:46:28.362Z,3.22
2023-01-17T14:49:03.858Z,3.47
2023-01-17T14:51:35.095Z,2.90
2023-01-17T14:54:06.227Z,2.92
2023-01-17T14:56:34.954Z,2.85
2023-01-17T14:59:14.619Z,3.55
2023-01-17T15:01:58.185Z,3.85
2023-01-17T15:04:39.651Z,3.38
2023-01-17T15:07:13.297Z,4.03
2023-01-17T15:09:44.824Z,4.22
2023-01-17T15:12:19.463Z,3.80
2023-01-17T15:14:51.735Z,3.58
2023-01-17T15:17:24.484Z,4.00
2023-01-17T15:20:01.400Z,3.05
2023-01-17T15:22:31.346Z,3.28
2023-01-17T15:25:01.332Z,3.42
2023-01-17T15:27:34.871Z,3.28
2023-01-17T15:30:07.460Z,3.42
2023-01-17T15:32:47.877Z,3.65
2023-01-17T15:35:19.137Z,3.30
2023-01-17T15:37:53.783Z,3.25
2023-01-17T15:40:28.015Z,3.13
2023-01-17T15:43:00.879Z,3.25
2023-01-17T15:45:31.281Z,3.50
2023-01-17T15:48:20.067Z,3.30
2023-01-17T15:50:58.887Z,3.38
2023-01-17T15:53:32.467Z,3.63
2023-01-17T15:56:01.025Z,3.45
2023-01-17T15:58:32.169Z,3.38
2023-01-17T16:01:02.936Z,3.35
2023-01-17T16:03:36.099Z,3.42
2023-01-17T16:06:05.373Z,3.40
2023-01-17T16:08:38.626Z,3.40
2023-01-17T16:11:11.576Z,3.10
2023-01-17T16:13:42.248Z,2.85
2023-01-17T16:16:15.896Z,3.60
2023-01-17T16:18:49.767Z,3.38
2023-01-17T16:21:19.678Z,2.90
2023-01-17T16:23:50.262Z,3.40
2023-01-17T16:26:18.676Z,4.45
2023-01-17T16:28:47.497Z,3.97
2023-01-17T16:31:16.253Z,4.18
2023-01-17T16:33:45.944Z,4.18
2023-01-17T16:36:17.211Z,3.97
2023-01-17T16:38:46.541Z,3.70
2023-01-17T16:41:19.468Z,4.63
2023-01-17T16:43:56.988Z,4.45
2023-01-17T16:46:25.985Z,6.65
2023-01-17T16:48:57.586Z,4.43
2023-01-17T16:51:26.249Z,3.08
2023-01-17T16:53:55.168Z,3.45
2023-01-17T16:56:24.096Z,2.45
2023-01-17T16:58:52.985Z,3.20
2023-01-17T17:01:22.839Z,2.30
2023-01-17T17:03:54.970Z,2.85
2023-01-17T17:06:23.635Z,2.70
2023-01-17T17:08:51.900Z,2.22
2023-01-17T17:11:24.570Z,2.95
2023-01-17T17:13:53.291Z,3.33
2023-01-17T17:16:23.199Z,2.67
2023-01-17T17:18:56.662Z,4.25
2023-01-17T17:21:25.195Z,5.03
2023-01-17T17:23:56.614Z,4.05
2023-01-17T17:26:30.880Z,3.58
2023-01-17T17:28:59.324Z,2.92
2023-01-17T17:31:28.234Z,3.28
2023-01-17T17:34:01.319Z,3.38
2023-01-17T17:36:30.924Z,7.32
2023-01-17T17:39:03.544Z,9.68
2023-01-17T17:41:34.620Z,10.18
2023-01-17T17:44:03.660Z,6.97
2023-01-17T17:46:34.998Z,7.15
2023-01-17T17:49:04.205Z,4.80
2023-01-17T17:51:34.149Z,5.30
2023-01-17T17:54:09.175Z,4.50
2023-01-17T17:56:38.453Z,4.93
2023-01-17T17:59:08.181Z,5.38
2023-01-17T18:01:38.209Z,4.82
2023-01-17T18:04:08.271Z,4.70
2023-01-17T18:06:38.524Z,4.82
2023-01-17T18:09:09.395Z,4.68
2023-01-17T18:11:39.305Z,4.40
2023-01-17T18:14:09.453Z,5.47
2023-01-17T18:16:42.213Z,6.72
2023-01-17T18:19:15.666Z,4.90
2023-01-17T18:21:44.348Z,4.05
2023-01-17T18:24:13.969Z,3.63
2023-01-17T18:26:43.734Z,2.95
2023-01-17T18:29:14.733Z,3.33
2023-01-17T18:31:46.105Z,3.47
2023-01-17T18:34:19.324Z,3.80
2023-01-17T18:36:51.998Z,3.63
2023-01-17T18:39:24.667Z,16.65
2023-01-17T18:41:58.930Z,13.27
2023-01-17T18:44:27.765Z,6.55
2023-01-17T18:46:58.170Z,5.35
2023-01-17T18:49:29.151Z,4.10
2023-01-17T18:51:57.681Z,4.75
2023-01-17T18:54:28.555Z,6.60
2023-01-17T18:56:58.713Z,5.90
2023-01-17T18:59:28.846Z,5.45
2023-01-17T19:02:00.553Z,4.80
2023-01-17T19:04:31.710Z,4.95
2023-01-17T19:07:00.112Z,4.85
2023-01-17T19:09:32.343Z,5.25
2023-01-17T19:12:01.074Z,5.30
2023-01-17T19:14:29.544Z,5.50
2023-01-17T19:16:58.945Z,5.63
2023-01-17T19:19:27.850Z,4.43
2023-01-17T19:21:58.679Z,4.03
2023-01-17T19:24:27.070Z,4.15
2023-01-17T19:26:55.507Z,4.57
2023-01-17T19:29:23.966Z,4.60
2023-01-17T19:31:52.663Z,5.80
2023-01-17T19:34:21.104Z,5.45
2023-01-17T19:36:49.549Z,9.05
2023-01-17T19:39:18.135Z,6.75
2023-01-17T19:41:46.778Z,5.93
2023-01-17T19:44:15.950Z,7.15
2023-01-17T19:46:46.045Z,6.90
2023-01-17T19:49:16.305Z,7.57
2023-01-17T19:51:49.566Z,6.80
2023-01-17T19:54:18.449Z,6.13
2023-01-17T19:56:46.968Z,6.68
2023-01-17T19:59:19.983Z,6.05
2023-01-17T20:01:49.095Z,5.97
2023-01-17T20:04:20.495Z,8.05
2023-01-17T20:06:51.102Z,9.82
2023-01-17T20:09:22.951Z,9.88
2023-01-17T20:11:51.576Z,19.45
2023-01-17T20:14:20.115Z,16.42
2023-01-17T20:16:49.712Z,9.38
2023-01-17T20:19:21.491Z,7.50
2023-01-17T20:21:51.995Z,7.65
2023-01-17T20:24:20.493Z,8.18
2023-01-17T20:26:51.033Z,8.73
2023-01-17T20:29:20.743Z,8.90
2023-01-17T20:31:52.359Z,9.00
2023-01-17T20:34:21.123Z,7.97
2023-01-17T20:36:50.070Z,8.07
2023-01-17T20:39:20.635Z,7.90
2023-01-17T20:41:51.976Z,6.93
2023-01-17T20:44:23.890Z,7.70
2023-01-17T20:46:54.458Z,6.70
2023-01-17T20:49:23.853Z,7.32
2023-01-17T20:51:54.301Z,6.78
2023-01-17T20:54:25.319Z,7.40
2023-01-17T20:56:53.736Z,6.50
2023-01-17T20:59:22.878Z,6.90
2023-01-17T21:01:52.791Z,7.63
2023-01-17T21:04:25.921Z,7.30
2023-01-17T21:06:55.238Z,7.13
2023-01-17T21:09:26.039Z,7.15
2023-01-17T21:11:54.407Z,7.47
2023-01-17T21:14:23.673Z,8.35
2023-01-17T21:16:51.898Z,9.20
2023-01-17T21:19:25.446Z,8.15
2023-01-17T21:21:54.005Z,9.35
2023-01-17T21:24:25.167Z,8.85
2023-01-17T21:26:56.960Z,8.55
2023-01-17T21:29:29.147Z,8.48
2023-01-17T21:31:57.854Z,9.05
2023-01-17T21:34:27.663Z,9.00
2023-01-17T21:36:56.061Z,8.85
2023-01-17T21:39:24.788Z,8.70
2023-01-17T21:41:55.370Z,9.30
2023-01-17T21:44:24.162Z,9.68
2023-01-17T21:46:56.379Z,8.80
2023-01-17T21:49:24.952Z,9.18
2023-01-17T21:52:10.866Z,9.60
2023-01-17T21:54:59.452Z,9.95
2023-01-17T21:57:52.370Z,9.77
2023-01-17T22:00:25.810Z,10.40
2023-01-17T22:03:10.944Z,9.25
2023-01-17T22:05:41.446Z,9.52
2023-01-17T22:08:12.680Z,10.07
2023-01-17T22:10:45.521Z,9.40
2023-01-17T22:13:18.175Z,10.77
2023-01-17T22:15:46.514Z,9.90
2023-01-17T22:18:15.989Z,9.52
2023-01-17T22:20:46.896Z,9.60
2023-01-17T22:23:15.113Z,8.95
2023-01-17T22:25:46.120Z,9.00
2023-01-17T22:28:14.669Z,10.18
2023-01-17T22:30:44.020Z,10.15
2023-01-17T22:33:23.741Z,9.82
2023-01-17T22:35:59.300Z,10.20
2023-01-17T22:38:28.070Z,10.45
2023-01-17T22:41:02.614Z,11.40
2023-01-17T22:43:32.222Z,11.27
2023-01-17T22:46:02.873Z,11.80
2023-01-17T22:48:34.853Z,11.88
2023-01-17T22:51:03.896Z,11.05
2023-01-17T22:53:33.649Z,12.35
2023-01-17T22:56:05.460Z,10.45
2023-01-17T22:58:34.089Z,12.18
2023-01-17T23:01:10.199Z,11.48
2023-01-17T23:03:41.704Z,10.02
2023-01-17T23:06:14.794Z,11.18
2023-01-17T23:08:44.382Z,10.40
2023-01-17T23:11:33.272Z,10.52
2023-01-17T23:14:02.532Z,9.38
2023-01-17T23:16:50.939Z,10.32
2023-01-17T23:19:44.773Z,8.73
2023-01-17T23:22:17.386Z,9.95
2023-01-17T23:24:53.199Z,7.80
2023-01-17T23:27:41.039Z,10.02
2023-01-17T23:30:14.104Z,11.45
2023-01-17T23:32:58.582Z,10.65
2023-01-17T23:35:28.084Z,10.98
2023-01-17T23:38:16.215Z,9.70
2023-01-17T23:41:07.523Z,10.82
2023-01-17T23:43:37.735Z,10.82
2023-01-17T23:46:11.777Z,11.05
2023-01-17T23:48:42.509Z,10.25
2023-01-17T23:51:10.838Z,10.13
2023-01-17T23:53:41.581Z,12.18
2023-01-17T23:56:18.274Z,10.50
2023-01-17T23:58:49.640Z,10.45
